Time;durP1;ratioP1;P1;durP2;ratioP2;P2;SDS_P1;SDS_P2;PMS_P1;PMS_P2;Temp;Humidity;BMP_temperature;BMP_pressure;BME280_temperature;BME280_humidity;BME280_pressure;Samples;Min_cycle;Max_cycle;Signal;HPM_P1;HPM_P2
2022/09/14 00:00:41;;;;;;;;;;;;;;;;;;2133292;27;19927;-41
2022/09/14 00:01:42;;;;;;;;;;;;;;;;;;2132984;27;19968;-41
2022/09/14 00:02:45;;;;;;;;;;;;;;;;;;2133109;27;19927;-41
2022/09/14 00:03:46;;;;;;;;;;;;;;;;;;2133266;27;19934;-41
2022/09/14 00:04:47;;;;;;;;;;;;;;;;;;2133100;27;20045;-41
2022/09/14 00:05:48;;;;;;;;;;;;;;;;;;2133389;27;20371;-41
2022/09/14 00:06:49;;;;;;;;;;;;;;;;;;2133115;27;19977;-41
2022/09/14 00:07:49;;;;;;;;;;;;;;;;;;2133026;27;19975;-41
2022/09/14 00:08:51;;;;;;;;;;;;;;;;;;2133545;27;20030;-41
2022/09/14 00:09:52;;;;;;;;;;;;;;;;;;2133225;27;20175;-41
2022/09/14 00:10:52;;;;;;;;;;;;;;;;;;2133231;27;20272;-41
2022/09/14 00:11:54;;;;;;;;;;;;;;;;;;2133025;27;20025;-41
2022/09/14 00:12:55;;;;;;;;;;;;;;;;;;2133255;27;19931;-42
2022/09/14 00:13:55;;;;;;;;;;;;;;;;;;2133248;27;19923;-41
2022/09/14 00:14:56;;;;;;;;;;;;;;;;;;2133360;27;19923;-41
2022/09/14 00:15:57;;;;;;;;;;;;;;;;;;2133303;27;19923;-41
2022/09/14 00:16:58;;;;;;;;;;;;;;;;;;2133029;27;19965;-42
2022/09/14 00:17:59;;;;;;;;;;;;;;;;;;2133145;27;19923;-41
2022/09/14 00:19:00;;;;;;;;;;;;;;;;;;2133153;27;19924;-41
2022/09/14 00:20:01;;;;;;;;;;;;;;;;;;2133050;27;19923;-41
2022/09/14 00:21:02;;;;;;;;;;;;;;;;;;2133036;27;20333;-41
2022/09/14 00:22:04;;;;;;;;;;;;;;;;;;2133076;27;19927;-41
2022/09/14 00:23:05;;;;;;;;;;;;;;;;;;2132985;27;19923;-41
2022/09/14 00:24:06;;;;;;;;;;;;;;;;;;2132997;27;19923;-41
2022/09/14 00:25:07;;;;;;;;;;;;;;;;;;2133106;27;19967;-41
2022/09/14 00:26:08;;;;;;;;;;;;;;;;;;2133164;27;20279;-41
2022/09/14 00:27:09;;;;;;;;;;;;;;;;;;2132953;27;19938;-42
2022/09/14 00:28:10;;;;;;;;;;;;;;;;;;2133073;27;19952;-41
2022/09/14 00:29:11;;;;;;;;;;;;;;;;;;2133027;27;19923;-41
2022/09/14 00:30:12;;;;;;;;;;;;;;;;;;2132937;27;19923;-41
2022/09/14 00:31:13;;;;;;;;;;;;;;;;;;2133142;27;19927;-41
2022/09/14 00:32:14;;;;;;;;;;;;;;;;;;2133119;27;20273;-41
2022/09/14 00:33:15;;;;;;;;;;;;;;;;;;2132885;27;19967;-41
2022/09/14 00:34:16;;;;;;;;;;;;;;;;;;2133018;27;20429;-41
2022/09/14 00:35:17;;;;;;;;;;;;;;;;;;2133299;27;19923;-44
2022/09/14 00:36:18;;;;;;;;;;;;;;;;;;2132803;27;19923;-45
2022/09/14 00:37:18;;;;;;;;;;;;;;;;;;2132950;27;19927;-45
2022/09/14 00:38:19;;;;;;;;;;;;;;;;;;2132938;27;19923;-45
2022/09/14 00:39:20;;;;;;;;;;;;;;;;;;2132905;27;19930;-45
2022/09/14 00:40:21;;;;;;;;;;;;;;;;;;2132990;27;20406;-45
2022/09/14 00:41:22;;;;;;;;;;;;;;;;;;2132892;27;20544;-44
2022/09/14 00:42:23;;;;;;;;;;;;;;;;;;2133030;27;19966;-44
2022/09/14 00:43:23;;;;;;;;;;;;;;;;;;2132914;27;19923;-45
2022/09/14 00:44:24;;;;;;;;;;;;;;;;;;2132998;27;19923;-45
2022/09/14 00:45:25;;;;;;;;;;;;;;;;;;2132924;27;20011;-45
2022/09/14 00:46:26;;;;;;;;;;;;;;;;;;2132912;27;19923;-45
2022/09/14 00:47:27;;;;;;;;;;;;;;;;;;2132892;27;20265;-45
2022/09/14 00:48:28;;;;;;;;;;;;;;;;;;2132976;27;19923;-45
2022/09/14 00:49:29;;;;;;;;;;;;;;;;;;2132428;27;19970;-45
2022/09/14 00:50:30;;;;;;;;;;;;;;;;;;2132516;27;19927;-45
2022/09/14 00:51:31;;;;;;;;;;;;;;;;;;2132797;27;19923;-44
2022/09/14 00:52:32;;;;;;;;;;;;;;;;;;2132894;27;19930;-45
2022/09/14 00:53:33;;;;;;;;;;;;;;;;;;2132833;27;20287;-45
2022/09/14 00:54:34;;;;;;;;;;;;;;;;;;2132736;27;19923;-45
2022/09/14 00:55:35;;;;;;;;;;;;;;;;;;2133008;27;19955;-45
2022/09/14 00:56:35;;;;;;;;;;;;;;;;;;2132758;27;20010;-44
2022/09/14 00:57:36;;;;;;;;;;;;;;;;;;2132608;27;20015;-45
2022/09/14 00:58:37;;;;;;;;;;;;;;;;;;2132916;27;19930;-45
2022/09/14 00:59:38;;;;;;;;;;;;;;;;;;2132763;27;19930;-44
2022/09/14 01:00:39;;;;;;;;;;;;;;;;;;2132898;27;20022;-45
2022/09/14 01:01:40;;;;;;;;;;;;;;;;;;2132925;27;19927;-45
2022/09/14 01:02:41;;;;;;;;;;;;;;;;;;2132776;27;20360;-44
2022/09/14 01:03:41;;;;;;;;;;;;;;;;;;2132684;27;19930;-44
2022/09/14 01:04:42;;;;;;;;;;;;;;;;;;2132875;27;19962;-46
2022/09/14 01:05:43;;;;;;;;;;;;;;;;;;2132799;27;20297;-45
2022/09/14 01:06:44;;;;;;;;;;;;;;;;;;2132706;27;20326;-45
2022/09/14 01:07:44;;;;;;;;;;;;;;;;;;2132863;27;19975;-44
2022/09/14 01:08:45;;;;;;;;;;;;;;;;;;2132763;27;20307;-45
2022/09/14 01:09:46;;;;;;;;;;;;;;;;;;2132689;27;19930;-44
2022/09/14 01:10:47;;;;;;;;;;;;;;;;;;2132695;27;20018;-44
2022/09/14 01:11:48;;;;;;;;;;;;;;;;;;2132513;27;20018;-45
2022/09/14 01:12:52;;;;;;;;;;;;;;;;;;2132903;27;19923;-44
2022/09/14 01:13:52;;;;;;;;;;;;;;;;;;2132718;27;20025;-44
2022/09/14 01:14:53;;;;;;;;;;;;;;;;;;2132687;27;19924;-44
2022/09/14 01:15:54;;;;;;;;;;;;;;;;;;2132872;27;19923;-44
2022/09/14 01:16:55;;;;;;;;;;;;;;;;;;2132776;27;19942;-45
2022/09/14 01:17:56;;;;;;;;;;;;;;;;;;2132704;27;19923;-45
2022/09/14 01:18:57;;;;;;;;;;;;;;;;;;2132620;27;20306;-44
2022/09/14 01:19:58;;;;;;;;;;;;;;;;;;2132889;27;20031;-42
2022/09/14 01:20:58;;;;;;;;;;;;;;;;;;2132832;27;20394;-42
2022/09/14 01:21:59;;;;;;;;;;;;;;;;;;2132555;27;20014;-41
2022/09/14 01:23:02;;;;;;;;;;;;;;;;;;2132711;27;20026;-41
2022/09/14 01:24:03;;;;;;;;;;;;;;;;;;2132847;27;19934;-42
2022/09/14 01:25:04;;;;;;;;;;;;;;;;;;2132751;27;19923;-41
2022/09/14 01:26:04;;;;;;;;;;;;;;;;;;2132771;27;19978;-41
2022/09/14 01:27:06;;;;;;;;;;;;;;;;;;2132655;27;20287;-42
2022/09/14 01:28:06;;;;;;;;;;;;;;;;;;2132482;27;19946;-41
2022/09/14 01:29:07;;;;;;;;;;;;;;;;;;2132759;27;20364;-41
2022/09/14 01:30:08;;;;;;;;;;;;;;;;;;2132627;27;19968;-41
2022/09/14 01:31:09;;;;;;;;;;;;;;;;;;2132587;27;19930;-42
2022/09/14 01:32:10;;;;;;;;;;;;;;;;;;2132479;27;20325;-41
2022/09/14 01:33:11;;;;;;;;;;;;;;;;;;2132589;27;19927;-41
2022/09/14 01:34:11;;;;;;;;;;;;;;;;;;2132710;27;19923;-41
2022/09/14 01:35:12;;;;;;;;;;;;;;;;;;2132630;27;20023;-41
2022/09/14 01:36:16;;;;;;;;;;;;;;;;;;2132416;27;19923;-41
2022/09/14 01:37:17;;;;;;;;;;;;;;;;;;2132612;27;19923;-41
2022/09/14 01:38:18;;;;;;;;;;;;;;;;;;2132743;27;20409;-46
2022/09/14 01:39:19;;;;;;;;;;;;;;;;;;2132646;27;20017;-45
2022/09/14 01:40:19;;;;;;;;;;;;;;;;;;2132588;27;19923;-45
2022/09/14 01:41:21;;;;;;;;;;;;;;;;;;2132414;27;19930;-44
2022/09/14 01:42:21;;;;;;;;;;;;;;;;;;2132518;27;19974;-45
2022/09/14 01:43:22;;;;;;;;;;;;;;;;;;2132656;27;19927;-46
2022/09/14 01:44:23;;;;;;;;;;;;;;;;;;2132511;27;20296;-45
2022/09/14 01:45:24;;;;;;;;;;;;;;;;;;2132643;27;19991;-44
2022/09/14 01:46:25;;;;;;;;;;;;;;;;;;2132427;27;19955;-44
2022/09/14 01:47:26;;;;;;;;;;;;;;;;;;2132514;27;19923;-44
2022/09/14 01:48:26;;;;;;;;;;;;;;;;;;2132409;27;19966;-44
2022/09/14 01:49:31;;;;;;;;;;;;;;;;;;2132671;27;20394;-46
2022/09/14 01:50:32;;;;;;;;;;;;;;;;;;2132710;27;19930;-42
2022/09/14 01:51:33;;;;;;;;;;;;;;;;;;2132397;27;19931;-42
2022/09/14 01:52:34;;;;;;;;;;;;;;;;;;2132538;27;19930;-42
2022/09/14 01:53:36;;;;;;;;;;;;;;;;;;2132445;27;20317;-41
2022/09/14 01:54:37;;;;;;;;;;;;;;;;;;2132380;27;19926;-41
2022/09/14 01:55:38;;;;;;;;;;;;;;;;;;2132363;27;20025;-41
2022/09/14 01:56:38;;;;;;;;;;;;;;;;;;2132621;27;19930;-42
2022/09/14 01:57:39;;;;;;;;;;;;;;;;;;2132534;27;20276;-41
2022/09/14 01:58:40;;;;;;;;;;;;;;;;;;2132505;27;19946;-41
2022/09/14 01:59:41;;;;;;;;;;;;;;;;;;2132505;27;19966;-42
2022/09/14 02:00:42;;;;;;;;;;;;;;;;;;2132399;27;19999;-41
2022/09/14 02:01:43;;;;;;;;;;;;;;;;;;2132379;27;19969;-41
2022/09/14 02:02:46;;;;;;;;;;;;;;;;;;2132474;27;19923;-41
2022/09/14 02:03:47;;;;;;;;;;;;;;;;;;2132492;27;19929;-42
2022/09/14 02:04:48;;;;;;;;;;;;;;;;;;2132378;27;19931;-41
2022/09/14 02:05:49;;;;;;;;;;;;;;;;;;2132419;27;19976;-42
2022/09/14 02:06:49;;;;;;;;;;;;;;;;;;2132263;27;19981;-41
2022/09/14 02:07:51;;;;;;;;;;;;;;;;;;2132385;27;19922;-41
2022/09/14 02:08:51;;;;;;;;;;;;;;;;;;2132420;27;19923;-41
2022/09/14 02:09:52;;;;;;;;;;;;;;;;;;2132286;27;20372;-42
2022/09/14 02:10:53;;;;;;;;;;;;;;;;;;2132303;27;19927;-42
2022/09/14 02:11:54;;;;;;;;;;;;;;;;;;2132081;27;20376;-43
2022/09/14 02:12:55;;;;;;;;;;;;;;;;;;2132384;27;19930;-41
2022/09/14 02:13:56;;;;;;;;;;;;;;;;;;2132262;27;19989;-42
2022/09/14 02:14:56;;;;;;;;;;;;;;;;;;2132265;27;20382;-42
2022/09/14 02:15:57;;;;;;;;;;;;;;;;;;2132252;27;20014;-42
2022/09/14 02:16:58;;;;;;;;;;;;;;;;;;2132220;27;20442;-42
2022/09/14 02:17:59;;;;;;;;;;;;;;;;;;2132302;27;19923;-42
2022/09/14 02:19:00;;;;;;;;;;;;;;;;;;2132353;27;19924;-42
2022/09/14 02:20:01;;;;;;;;;;;;;;;;;;2132254;27;20302;-41
2022/09/14 02:21:02;;;;;;;;;;;;;;;;;;2132398;27;20040;-41
2022/09/14 02:22:03;;;;;;;;;;;;;;;;;;2132272;27;19987;-41
2022/09/14 02:23:03;;;;;;;;;;;;;;;;;;2132221;27;19966;-41
2022/09/14 02:24:04;;;;;;;;;;;;;;;;;;2132401;27;19965;-42
2022/09/14 02:25:05;;;;;;;;;;;;;;;;;;2132200;27;20341;-42
2022/09/14 02:26:06;;;;;;;;;;;;;;;;;;2132373;27;20055;-41
2022/09/14 02:27:07;;;;;;;;;;;;;;;;;;2132106;27;19963;-42
2022/09/14 02:28:07;;;;;;;;;;;;;;;;;;2132313;27;19923;-41
2022/09/14 02:29:08;;;;;;;;;;;;;;;;;;2132410;27;19926;-42
2022/09/14 02:30:09;;;;;;;;;;;;;;;;;;2132412;27;20320;-41
2022/09/14 02:31:10;;;;;;;;;;;;;;;;;;2132223;27;19927;-42
2022/09/14 02:32:11;;;;;;;;;;;;;;;;;;2132229;27;20067;-42
2022/09/14 02:33:12;;;;;;;;;;;;;;;;;;2132334;27;19923;-42
2022/09/14 02:34:13;;;;;;;;;;;;;;;;;;2132187;27;19923;-42
2022/09/14 02:35:13;;;;;;;;;;;;;;;;;;2132278;27;19979;-42
2022/09/14 02:36:14;;;;;;;;;;;;;;;;;;2132150;27;19923;-42
2022/09/14 02:37:15;;;;;;;;;;;;;;;;;;2132096;27;19923;-42
2022/09/14 02:38:16;;;;;;;;;;;;;;;;;;2132108;27;19923;-41
2022/09/14 02:39:17;;;;;;;;;;;;;;;;;;2132139;27;19930;-41
2022/09/14 02:40:18;;;;;;;;;;;;;;;;;;2132119;27;19939;-42
2022/09/14 02:41:18;;;;;;;;;;;;;;;;;;2132056;27;20292;-42
2022/09/14 02:42:19;;;;;;;;;;;;;;;;;;2132112;27;19962;-42
2022/09/14 02:43:20;;;;;;;;;;;;;;;;;;2132232;27;19962;-42
2022/09/14 02:44:21;;;;;;;;;;;;;;;;;;2132250;27;20384;-42
2022/09/14 02:45:22;;;;;;;;;;;;;;;;;;2132083;27;19971;-42
2022/09/14 02:46:23;;;;;;;;;;;;;;;;;;2132063;27;19973;-41
2022/09/14 02:47:23;;;;;;;;;;;;;;;;;;2132089;27;19927;-41
2022/09/14 02:48:24;;;;;;;;;;;;;;;;;;2132003;27;19923;-42
2022/09/14 02:49:25;;;;;;;;;;;;;;;;;;2132130;27;19939;-45
2022/09/14 02:50:26;;;;;;;;;;;;;;;;;;2132387;27;20014;-42
2022/09/14 02:51:27;;;;;;;;;;;;;;;;;;2132027;27;20420;-42
2022/09/14 02:52:27;;;;;;;;;;;;;;;;;;2132050;27;19923;-42
2022/09/14 02:53:28;;;;;;;;;;;;;;;;;;2132007;27;19974;-42
2022/09/14 02:54:29;;;;;;;;;;;;;;;;;;2132096;27;19923;-42
2022/09/14 02:55:30;;;;;;;;;;;;;;;;;;2132119;27;19923;-41
2022/09/14 02:56:31;;;;;;;;;;;;;;;;;;2132019;27;20013;-42
2022/09/14 02:57:31;;;;;;;;;;;;;;;;;;2132335;27;20358;-41
2022/09/14 02:58:33;;;;;;;;;;;;;;;;;;2132100;27;19923;-41
2022/09/14 02:59:33;;;;;;;;;;;;;;;;;;2132249;27;19934;-42
2022/09/14 03:00:35;;;;;;;;;;;;;;;;;;2132018;27;19974;-42
2022/09/14 03:01:36;;;;;;;;;;;;;;;;;;2132177;27;20299;-42
2022/09/14 03:02:37;;;;;;;;;;;;;;;;;;2132132;27;19923;-42
2022/09/14 03:03:37;;;;;;;;;;;;;;;;;;2132038;27;20015;-41
2022/09/14 03:04:38;;;;;;;;;;;;;;;;;;2131978;27;19962;-42
2022/09/14 03:05:39;;;;;;;;;;;;;;;;;;2131979;27;20387;-42
2022/09/14 03:06:40;;;;;;;;;;;;;;;;;;2132033;27;20391;-42
2022/09/14 03:07:41;;;;;;;;;;;;;;;;;;2131826;27;19930;-41
2022/09/14 03:08:42;;;;;;;;;;;;;;;;;;2132137;27;19923;-42
2022/09/14 03:09:42;;;;;;;;;;;;;;;;;;2132010;27;19923;-42
2022/09/14 03:10:43;;;;;;;;;;;;;;;;;;2132090;27;19927;-42
2022/09/14 03:11:44;;;;;;;;;;;;;;;;;;2131628;27;19929;-42
2022/09/14 03:12:45;;;;;;;;;;;;;;;;;;2131437;27;19966;-42
2022/09/14 03:13:46;;;;;;;;;;;;;;;;;;2132041;27;20017;-42
2022/09/14 03:14:47;;;;;;;;;;;;;;;;;;2131930;27;20022;-42
2022/09/14 03:15:48;;;;;;;;;;;;;;;;;;2131991;27;19951;-42
2022/09/14 03:16:48;;;;;;;;;;;;;;;;;;2131799;27;19923;-42
2022/09/14 03:17:49;;;;;;;;;;;;;;;;;;2132066;27;19966;-42
2022/09/14 03:18:50;;;;;;;;;;;;;;;;;;2131913;27;20174;-42
2022/09/14 03:19:51;;;;;;;;;;;;;;;;;;2132032;27;20043;-42
2022/09/14 03:20:52;;;;;;;;;;;;;;;;;;2131868;27;19976;-42
2022/09/14 03:21:53;;;;;;;;;;;;;;;;;;2132028;27;20473;-42
2022/09/14 03:22:53;;;;;;;;;;;;;;;;;;2131999;27;20044;-42
2022/09/14 03:23:56;;;;;;;;;;;;;;;;;;2131959;27;19927;-42
2022/09/14 03:24:57;;;;;;;;;;;;;;;;;;2131885;27;20269;-42
2022/09/14 03:25:58;;;;;;;;;;;;;;;;;;2131826;27;19930;-42
2022/09/14 03:26:58;;;;;;;;;;;;;;;;;;2131743;27;19930;-42
2022/09/14 03:27:59;;;;;;;;;;;;;;;;;;2131767;27;19970;-42
2022/09/14 03:29:00;;;;;;;;;;;;;;;;;;2131990;27;19943;-42
2022/09/14 03:30:01;;;;;;;;;;;;;;;;;;2131844;27;19958;-42
2022/09/14 03:31:02;;;;;;;;;;;;;;;;;;2131788;27;19953;-42
2022/09/14 03:32:03;;;;;;;;;;;;;;;;;;2131657;27;19937;-42
2022/09/14 03:33:04;;;;;;;;;;;;;;;;;;2131974;27;20376;-42
2022/09/14 03:34:05;;;;;;;;;;;;;;;;;;2131786;27;19923;-42
2022/09/14 03:35:05;;;;;;;;;;;;;;;;;;2131796;27;20376;-42
2022/09/14 03:36:06;;;;;;;;;;;;;;;;;;2132177;27;19923;-45
2022/09/14 03:37:07;;;;;;;;;;;;;;;;;;2131665;27;19923;-45
2022/09/14 03:38:08;;;;;;;;;;;;;;;;;;2131898;27;20006;-44
2022/09/14 03:39:09;;;;;;;;;;;;;;;;;;2131927;27;20362;-46
2022/09/14 03:40:09;;;;;;;;;;;;;;;;;;2131944;27;20009;-46
2022/09/14 03:41:10;;;;;;;;;;;;;;;;;;2131733;27;19923;-45
2022/09/14 03:42:11;;;;;;;;;;;;;;;;;;2131878;27;20372;-45
2022/09/14 03:43:12;;;;;;;;;;;;;;;;;;2131995;27;20391;-44
2022/09/14 03:44:13;;;;;;;;;;;;;;;;;;2131752;27;19923;-45
2022/09/14 03:45:14;;;;;;;;;;;;;;;;;;2131745;27;20429;-45
2022/09/14 03:46:14;;;;;;;;;;;;;;;;;;2131829;27;19923;-45
2022/09/14 03:47:15;;;;;;;;;;;;;;;;;;2131627;27;19923;-44
2022/09/14 03:48:16;;;;;;;;;;;;;;;;;;2131661;27;19930;-44
2022/09/14 03:49:17;;;;;;;;;;;;;;;;;;2131769;27;20322;-44
2022/09/14 03:50:18;;;;;;;;;;;;;;;;;;2131769;27;20021;-45
2022/09/14 03:51:19;;;;;;;;;;;;;;;;;;2131769;27;19924;-45
2022/09/14 03:52:20;;;;;;;;;;;;;;;;;;2131761;27;19984;-45
2022/09/14 03:53:20;;;;;;;;;;;;;;;;;;2131883;27;19994;-46
2022/09/14 03:54:21;;;;;;;;;;;;;;;;;;2131755;27;19923;-46
2022/09/14 03:55:22;;;;;;;;;;;;;;;;;;2131859;27;19946;-45
2022/09/14 03:56:23;;;;;;;;;;;;;;;;;;2131752;27;19927;-47
2022/09/14 03:57:24;;;;;;;;;;;;;;;;;;2131666;27;19991;-45
2022/09/14 03:58:25;;;;;;;;;;;;;;;;;;2131800;27;19923;-45
2022/09/14 03:59:26;;;;;;;;;;;;;;;;;;2131676;27;20417;-44
2022/09/14 04:00:26;;;;;;;;;;;;;;;;;;2131782;27;19923;-45
2022/09/14 04:01:27;;;;;;;;;;;;;;;;;;2131550;27;20381;-45
2022/09/14 04:02:28;;;;;;;;;;;;;;;;;;2131608;27;20013;-45
2022/09/14 04:03:29;;;;;;;;;;;;;;;;;;2131883;27;19927;-45
2022/09/14 04:04:30;;;;;;;;;;;;;;;;;;2131793;27;20001;-45
2022/09/14 04:05:31;;;;;;;;;;;;;;;;;;2131601;27;20284;-45
2022/09/14 04:06:31;;;;;;;;;;;;;;;;;;2131726;27;19929;-45
2022/09/14 04:07:32;;;;;;;;;;;;;;;;;;2131611;27;19969;-45
2022/09/14 04:08:33;;;;;;;;;;;;;;;;;;2131770;27;19976;-45
2022/09/14 04:09:34;;;;;;;;;;;;;;;;;;2131618;27;19927;-45
2022/09/14 04:10:35;;;;;;;;;;;;;;;;;;2131571;27;19954;-46
2022/09/14 04:11:36;;;;;;;;;;;;;;;;;;2131688;27;20291;-45
2022/09/14 04:12:36;;;;;;;;;;;;;;;;;;2131628;27;19923;-46
2022/09/14 04:13:37;;;;;;;;;;;;;;;;;;2131609;27;19974;-45
2022/09/14 04:14:38;;;;;;;;;;;;;;;;;;2131576;27;19923;-45
2022/09/14 04:15:39;;;;;;;;;;;;;;;;;;2131691;27;20376;-44
2022/09/14 04:16:40;;;;;;;;;;;;;;;;;;2131673;27;19929;-46
2022/09/14 04:17:41;;;;;;;;;;;;;;;;;;2131541;27;19930;-47
2022/09/14 04:18:42;;;;;;;;;;;;;;;;;;2131567;27;19970;-45
2022/09/14 04:19:43;;;;;;;;;;;;;;;;;;2131527;27;19923;-44
2022/09/14 04:20:43;;;;;;;;;;;;;;;;;;2131515;27;19966;-45
2022/09/14 04:21:45;;;;;;;;;;;;;;;;;;2131458;27;19923;-45
2022/09/14 04:22:46;;;;;;;;;;;;;;;;;;2131518;27;19927;-45
2022/09/14 04:23:47;;;;;;;;;;;;;;;;;;2131740;27;19930;-42
2022/09/14 04:25:07;;;;;;;;;;;;;;;;;;2132051;27;19923;-42
2022/09/14 04:26:08;;;;;;;;;;;;;;;;;;2133347;27;20049;-46
2022/09/14 04:27:10;;;;;;;;;;;;;;;;;;2133093;27;19959;-44
2022/09/14 04:28:11;;;;;;;;;;;;;;;;;;2132931;27;19927;-45
2022/09/14 04:29:20;;;;;;;;;;;;;;;;;;2133189;27;19923;-44
2022/09/14 04:30:21;;;;;;;;;;;;;;;;;;2133114;27;20398;-45
2022/09/14 04:31:22;;;;;;;;;;;;;;;;;;2132912;27;19967;-46
2022/09/14 04:32:23;;;;;;;;;;;;;;;;;;2133079;27;20126;-45
2022/09/14 04:33:23;;;;;;;;;;;;;;;;;;2132934;27;19953;-45
2022/09/14 04:34:24;;;;;;;;;;;;;;;;;;2132957;27;19923;-44
2022/09/14 04:35:25;;;;;;;;;;;;;;;;;;2133073;27;20009;-45
2022/09/14 04:36:28;;;;;;;;;;;;;;;;;;2132997;27;20403;-45
2022/09/14 04:37:29;;;;;;;;;;;;;;;;;;2132864;27;19927;-44
2022/09/14 04:38:30;;;;;;;;;;;;;;;;;;2133084;27;20368;-45
2022/09/14 04:39:30;;;;;;;;;;;;;;;;;;2133336;27;19923;-42
2022/09/14 04:40:31;;;;;;;;;;;;;;;;;;2133040;27;20439;-42
2022/09/14 04:41:32;;;;;;;;;;;;;;;;;;2133047;27;20269;-46
2022/09/14 04:42:33;;;;;;;;;;;;;;;;;;2133067;27;19923;-42
2022/09/14 04:43:34;;;;;;;;;;;;;;;;;;2132843;27;19930;-42
2022/09/14 04:44:35;;;;;;;;;;;;;;;;;;2132921;27;19923;-43
2022/09/14 04:45:36;;;;;;;;;;;;;;;;;;2132916;27;19929;-43
2022/09/14 04:46:38;;;;;;;;;;;;;;;;;;2132789;27;19923;-43
2022/09/14 04:47:43;;;;;;;;;;;;;;;;;;2132938;27;19927;-43
2022/09/14 04:48:44;;;;;;;;;;;;;;;;;;2132736;27;19923;-42
2022/09/14 04:49:45;;;;;;;;;;;;;;;;;;2132816;27;19927;-42
2022/09/14 04:50:46;;;;;;;;;;;;;;;;;;2132825;27;19966;-42
2022/09/14 04:51:47;;;;;;;;;;;;;;;;;;2133136;27;19985;-45
2022/09/14 04:52:48;;;;;;;;;;;;;;;;;;2132883;27;19923;-45
2022/09/14 04:53:49;;;;;;;;;;;;;;;;;;2132992;27;19923;-44
2022/09/14 04:54:49;;;;;;;;;;;;;;;;;;2133204;27;19923;-48
2022/09/14 04:55:50;;;;;;;;;;;;;;;;;;2132852;27;20315;-44
2022/09/14 04:56:51;;;;;;;;;;;;;;;;;;2132813;27;20299;-44
2022/09/14 04:57:52;;;;;;;;;;;;;;;;;;2132768;27;19923;-44
2022/09/14 04:58:53;;;;;;;;;;;;;;;;;;2132948;27;19927;-47
2022/09/14 04:59:54;;;;;;;;;;;;;;;;;;2132756;27;20364;-46
2022/09/14 05:00:55;;;;;;;;;;;;;;;;;;2132998;27;19942;-43
2022/09/14 05:01:55;;;;;;;;;;;;;;;;;;2132858;27;19923;-42
2022/09/14 05:02:56;;;;;;;;;;;;;;;;;;2132973;27;19962;-42
2022/09/14 05:03:57;;;;;;;;;;;;;;;;;;2132792;27;19923;-42
2022/09/14 05:04:58;;;;;;;;;;;;;;;;;;2133125;27;19923;-46
2022/09/14 05:05:59;;;;;;;;;;;;;;;;;;2132824;27;19945;-45
2022/09/14 05:07:00;;;;;;;;;;;;;;;;;;2132692;27;19923;-45
2022/09/14 05:08:00;;;;;;;;;;;;;;;;;;2132675;27;19931;-44
2022/09/14 05:09:01;;;;;;;;;;;;;;;;;;2132950;27;20398;-45
2022/09/14 05:10:02;;;;;;;;;;;;;;;;;;2132894;27;19927;-44
2022/09/14 05:11:03;;;;;;;;;;;;;;;;;;2132838;27;20380;-42
2022/09/14 05:12:04;;;;;;;;;;;;;;;;;;2132642;27;19927;-42
2022/09/14 05:13:05;;;;;;;;;;;;;;;;;;2132749;27;19962;-42
2022/09/14 05:14:05;;;;;;;;;;;;;;;;;;2132869;27;20367;-42
2022/09/14 05:15:06;;;;;;;;;;;;;;;;;;2133075;27;20368;-42
2022/09/14 05:16:07;;;;;;;;;;;;;;;;;;2132779;27;19928;-42
2022/09/14 05:17:08;;;;;;;;;;;;;;;;;;2132665;27;19923;-43
2022/09/14 05:18:09;;;;;;;;;;;;;;;;;;2132696;27;19923;-42
2022/09/14 05:19:10;;;;;;;;;;;;;;;;;;2132759;27;19970;-42
2022/09/14 05:20:10;;;;;;;;;;;;;;;;;;2132743;27;20100;-42
2022/09/14 05:21:11;;;;;;;;;;;;;;;;;;2132698;27;19931;-42
2022/09/14 05:22:13;;;;;;;;;;;;;;;;;;2132528;27;19924;-43
2022/09/14 05:23:14;;;;;;;;;;;;;;;;;;2132664;27;19927;-43
2022/09/14 05:24:15;;;;;;;;;;;;;;;;;;2132770;27;19978;-43
2022/09/14 05:25:16;;;;;;;;;;;;;;;;;;2132758;27;19923;-43
2022/09/14 05:26:16;;;;;;;;;;;;;;;;;;2132805;27;20059;-46
2022/09/14 05:27:17;;;;;;;;;;;;;;;;;;2133046;27;20055;-44
2022/09/14 05:28:18;;;;;;;;;;;;;;;;;;2132638;27;20379;-45
2022/09/14 05:29:19;;;;;;;;;;;;;;;;;;2132674;27;20295;-44
2022/09/14 05:30:19;;;;;;;;;;;;;;;;;;2132858;27;20018;-44
2022/09/14 05:31:20;;;;;;;;;;;;;;;;;;2132571;27;19937;-44
2022/09/14 05:32:21;;;;;;;;;;;;;;;;;;2132718;27;19930;-45
2022/09/14 05:33:22;;;;;;;;;;;;;;;;;;2132595;27;20367;-45
2022/09/14 05:34:23;;;;;;;;;;;;;;;;;;2132740;27;19946;-44
2022/09/14 05:35:24;;;;;;;;;;;;;;;;;;2132720;27;19970;-45
2022/09/14 05:36:24;;;;;;;;;;;;;;;;;;2132088;27;20253;-44
2022/09/14 05:37:25;;;;;;;;;;;;;;;;;;2132471;27;19958;-45
2022/09/14 05:38:26;;;;;;;;;;;;;;;;;;2132512;27;19923;-45
2022/09/14 05:39:28;;;;;;;;;;;;;;;;;;2132683;27;19930;-42
2022/09/14 05:40:28;;;;;;;;;;;;;;;;;;2132698;27;20241;-46
2022/09/14 05:41:29;;;;;;;;;;;;;;;;;;2132477;27;19930;-45
2022/09/14 05:42:30;;;;;;;;;;;;;;;;;;2132793;27;20023;-46
2022/09/14 05:43:31;;;;;;;;;;;;;;;;;;2132463;27;19923;-46
2022/09/14 05:44:32;;;;;;;;;;;;;;;;;;2132413;27;19952;-44
2022/09/14 05:45:32;;;;;;;;;;;;;;;;;;2132667;27;19966;-45
2022/09/14 05:46:33;;;;;;;;;;;;;;;;;;2132476;27;20441;-45
2022/09/14 05:47:34;;;;;;;;;;;;;;;;;;2132506;27;20349;-45
2022/09/14 05:48:39;;;;;;;;;;;;;;;;;;2132397;27;19970;-44
2022/09/14 05:49:40;;;;;;;;;;;;;;;;;;2132439;27;19934;-44
2022/09/14 05:50:41;;;;;;;;;;;;;;;;;;2132408;27;19966;-44
2022/09/14 05:51:41;;;;;;;;;;;;;;;;;;2132661;27;20423;-44
2022/09/14 05:52:42;;;;;;;;;;;;;;;;;;2132580;27;19942;-44
2022/09/14 05:53:43;;;;;;;;;;;;;;;;;;2132460;27;20386;-45
2022/09/14 05:54:44;;;;;;;;;;;;;;;;;;2132614;27;19927;-46
2022/09/14 05:55:45;;;;;;;;;;;;;;;;;;2132545;27;20002;-45
2022/09/14 05:56:46;;;;;;;;;;;;;;;;;;2132347;27;20272;-44
2022/09/14 05:57:47;;;;;;;;;;;;;;;;;;2132557;27;19964;-45
2022/09/14 05:58:48;;;;;;;;;;;;;;;;;;2132369;27;20013;-45
2022/09/14 05:59:48;;;;;;;;;;;;;;;;;;2132410;27;19923;-44
2022/09/14 06:00:49;;;;;;;;;;;;;;;;;;2132396;27;19962;-45
2022/09/14 06:01:50;;;;;;;;;;;;;;;;;;2132458;27;20326;-45
2022/09/14 06:02:51;;;;;;;;;;;;;;;;;;2132450;27;19938;-46
2022/09/14 06:03:52;;;;;;;;;;;;;;;;;;2132385;27;19930;-45
2022/09/14 06:04:53;;;;;;;;;;;;;;;;;;2132332;27;19923;-45
2022/09/14 06:05:54;;;;;;;;;;;;;;;;;;2132286;27;19962;-44
2022/09/14 06:06:54;;;;;;;;;;;;;;;;;;2132306;27;19927;-46
2022/09/14 06:08:15;;;;;;;;;;;;;;;;;;2132314;27;20291;-45
2022/09/14 06:09:16;;;;;;;;;;;;;;;;;;2132300;27;19923;-45
2022/09/14 06:10:17;;;;;;;;;;;;;;;;;;2132406;27;19970;-45
2022/09/14 06:11:18;;;;;;;;;;;;;;;;;;2132194;27;19976;-45
2022/09/14 06:12:19;;;;;;;;;;;;;;;;;;2132562;27;19930;-42
2022/09/14 06:13:21;;;;;;;;;;;;;;;;;;2132407;27;20380;-43
2022/09/14 06:14:22;;;;;;;;;;;;;;;;;;2132519;27;19930;-42
2022/09/14 06:15:23;;;;;;;;;;;;;;;;;;2132458;27;20310;-43
2022/09/14 06:16:24;;;;;;;;;;;;;;;;;;2132242;27;20288;-42
2022/09/14 06:17:25;;;;;;;;;;;;;;;;;;2132404;27;19930;-43
2022/09/14 06:18:26;;;;;;;;;;;;;;;;;;2132235;27;19923;-43
2022/09/14 06:19:27;;;;;;;;;;;;;;;;;;2132368;27;19930;-43
2022/09/14 06:20:27;;;;;;;;;;;;;;;;;;2132376;27;19923;-42
2022/09/14 06:21:28;;;;;;;;;;;;;;;;;;2132136;27;20029;-42
2022/09/14 06:22:29;;;;;;;;;;;;;;;;;;2132390;27;19923;-42
2022/09/14 06:23:30;;;;;;;;;;;;;;;;;;2132292;27;19929;-43
2022/09/14 06:24:32;;;;;;;;;;;;;;;;;;2132369;27;19923;-42
2022/09/14 06:25:32;;;;;;;;;;;;;;;;;;2132394;27;19930;-45
2022/09/14 06:26:33;;;;;;;;;;;;;;;;;;2132232;27;19959;-45
2022/09/14 06:27:34;;;;;;;;;;;;;;;;;;2132374;27;20283;-45
2022/09/14 06:28:35;;;;;;;;;;;;;;;;;;2132116;27;19924;-44
2022/09/14 06:29:36;;;;;;;;;;;;;;;;;;2132290;27;19959;-46
2022/09/14 06:30:37;;;;;;;;;;;;;;;;;;2132222;27;20021;-46
2022/09/14 06:31:38;;;;;;;;;;;;;;;;;;2132085;27;19983;-45
2022/09/14 06:32:38;;;;;;;;;;;;;;;;;;2132085;27;20324;-44
2022/09/14 06:33:39;;;;;;;;;;;;;;;;;;2132260;27;20029;-45
2022/09/14 06:34:40;;;;;;;;;;;;;;;;;;2132162;27;19922;-45
2022/09/14 06:35:41;;;;;;;;;;;;;;;;;;2132144;27;19972;-48
2022/09/14 06:36:43;;;;;;;;;;;;;;;;;;2132105;27;19923;-45
2022/09/14 06:37:44;;;;;;;;;;;;;;;;;;2132147;27;19931;-46
2022/09/14 06:38:45;;;;;;;;;;;;;;;;;;2132290;27;19974;-45
2022/09/14 06:39:46;;;;;;;;;;;;;;;;;;2132144;27;20345;-45
2022/09/14 06:40:47;;;;;;;;;;;;;;;;;;2132429;27;19944;-42
2022/09/14 06:41:47;;;;;;;;;;;;;;;;;;2132208;27;19923;-43
2022/09/14 06:42:48;;;;;;;;;;;;;;;;;;2132028;27;19973;-42
2022/09/14 06:43:49;;;;;;;;;;;;;;;;;;2132489;27;20002;-42
2022/09/14 06:44:50;;;;;;;;;;;;;;;;;;2132498;27;19923;-42
2022/09/14 06:45:51;;;;;;;;;;;;;;;;;;2132269;27;19923;-42
2022/09/14 06:46:52;;;;;;;;;;;;;;;;;;2132066;27;19923;-42
2022/09/14 06:47:52;;;;;;;;;;;;;;;;;;2131194;27;20019;-43
2022/09/14 06:48:53;;;;;;;;;;;;;;;;;;2132141;27;19981;-42
2022/09/14 06:49:54;;;;;;;;;;;;;;;;;;2132137;27;20350;-42
2022/09/14 06:50:55;;;;;;;;;;;;;;;;;;2132197;27;20342;-42
2022/09/14 06:51:56;;;;;;;;;;;;;;;;;;2132001;27;19923;-43
2022/09/14 06:52:57;;;;;;;;;;;;;;;;;;2132008;27;19923;-42
2022/09/14 06:53:58;;;;;;;;;;;;;;;;;;2132038;27;20392;-42
2022/09/14 06:54:59;;;;;;;;;;;;;;;;;;2132285;27;19929;-44
2022/09/14 06:56:00;;;;;;;;;;;;;;;;;;2132020;27;20370;-46
2022/09/14 06:57:01;;;;;;;;;;;;;;;;;;2131945;27;20376;-44